createdAt,value
2022-08-03T00:00:29.678Z,69.28
2022-08-03T00:02:57.007Z,69.16
2022-08-03T00:05:24.389Z,68.99
2022-08-03T00:07:51.692Z,68.98
2022-08-03T00:10:20.589Z,68.87
2022-08-03T00:12:48.104Z,68.76
2022-08-03T00:15:16.719Z,68.80
2022-08-03T00:17:53.478Z,68.81
2022-08-03T00:20:24.458Z,68.48
2022-08-03T00:22:52.148Z,68.19
2022-08-03T00:25:19.502Z,68.24
2022-08-03T00:27:48.332Z,67.75
2022-08-03T00:30:16.855Z,68.36
2022-08-03T00:32:45.455Z,68.45
2022-08-03T00:35:28.036Z,67.71
2022-08-03T00:38:00.274Z,67.49
2022-08-03T00:40:27.716Z,67.81
2022-08-03T00:42:59.367Z,67.95
2022-08-03T00:45:28.492Z,68.07
2022-08-03T00:47:56.355Z,68.34
2022-08-03T00:50:24.256Z,67.81
2022-08-03T00:52:56.854Z,68.14
2022-08-03T00:55:24.561Z,68.43
2022-08-03T00:57:52.333Z,67.90
2022-08-03T01:00:21.367Z,68.24
2022-08-03T01:02:50.123Z,68.28
2022-08-03T01:05:17.714Z,68.31
2022-08-03T01:08:00.368Z,69.12
2022-08-03T01:10:50.521Z,68.97
2022-08-03T01:13:59.801Z,68.95
2022-08-03T01:16:12.900Z,69.04
2022-08-03T01:19:27.985Z,69.33
2022-08-03T01:22:14.732Z,69.28
2022-08-03T01:24:55.853Z,69.17
2022-08-03T01:27:29.672Z,69.34
2022-08-03T01:30:09.159Z,69.54
2022-08-03T01:33:02.378Z,69.64
2022-08-03T01:35:43.214Z,69.50
2022-08-03T01:38:12.691Z,69.64
2022-08-03T01:40:41.082Z,69.47
2022-08-03T01:43:09.352Z,68.51
2022-08-03T01:45:36.843Z,68.76
2022-08-03T01:48:04.439Z,68.67
2022-08-03T01:50:31.760Z,68.46
2022-08-03T01:52:59.306Z,68.64
2022-08-03T01:55:29.831Z,67.88
2022-08-03T01:58:05.800Z,67.72
2022-08-03T02:00:37.299Z,67.69
2022-08-03T02:03:06.143Z,68.02
2022-08-03T02:05:33.454Z,67.83
2022-08-03T02:08:02.102Z,67.58
2022-08-03T02:10:34.590Z,67.48
2022-08-03T02:13:02.678Z,67.21
2022-08-03T02:15:30.380Z,66.59
2022-08-03T02:17:57.972Z,66.92
2022-08-03T02:20:25.474Z,67.07
2022-08-03T02:22:52.871Z,67.28
2022-08-03T02:25:20.390Z,67.88
2022-08-03T02:27:55.804Z,68.31
2022-08-03T02:30:23.071Z,68.69
2022-08-03T02:32:53.218Z,68.67
2022-08-03T02:35:20.946Z,68.51
2022-08-03T02:37:50.599Z,68.17
2022-08-03T02:40:19.300Z,68.54
2022-08-03T02:42:47.785Z,69.20
2022-08-03T02:45:15.119Z,69.33
2022-08-03T02:47:53.892Z,69.33
2022-08-03T02:50:22.391Z,68.69
2022-08-03T02:52:49.988Z,69.27
2022-08-03T02:55:17.366Z,67.78
2022-08-03T02:57:44.715Z,67.28
2022-08-03T03:00:12.609Z,67.23
2022-08-03T03:02:40.541Z,67.52
2022-08-03T03:05:54.448Z,67.48
2022-08-03T03:07:59.083Z,67.71
2022-08-03T03:10:26.442Z,67.27
2022-08-03T03:12:55.783Z,67.15
2022-08-03T03:15:24.062Z,66.89
2022-08-03T03:17:51.429Z,66.52
2022-08-03T03:20:29.516Z,66.59
2022-08-03T03:23:01.231Z,66.70
2022-08-03T03:25:30.723Z,67.10
2022-08-03T03:27:59.341Z,67.46
2022-08-03T03:30:26.809Z,67.77
2022-08-03T03:32:54.284Z,67.78
2022-08-03T03:35:21.669Z,67.96
2022-08-03T03:37:48.961Z,68.29
2022-08-03T03:40:16.325Z,68.52
2022-08-03T03:42:43.941Z,68.27
2022-08-03T03:45:11.741Z,68.22
2022-08-03T03:47:39.217Z,68.16
2022-08-03T03:50:07.052Z,68.06
2022-08-03T03:52:35.034Z,67.35
2022-08-03T03:55:02.381Z,67.31
2022-08-03T03:57:29.709Z,67.17
2022-08-03T03:59:57.107Z,66.83
2022-08-03T04:02:24.464Z,67.00
2022-08-03T04:05:10.417Z,66.70
2022-08-03T04:08:23.212Z,66.86
2022-08-03T04:11:10.784Z,67.23
2022-08-03T04:13:39.814Z,67.10
2022-08-03T04:16:07.920Z,67.06
2022-08-03T04:18:35.664Z,67.10
2022-08-03T04:21:04.218Z,66.99
2022-08-03T04:23:34.739Z,66.59
2022-08-03T04:26:02.759Z,66.84
2022-08-03T04:28:32.022Z,66.90
2022-08-03T04:31:02.992Z,66.97
2022-08-03T04:33:32.366Z,66.51
2022-08-03T04:36:02.695Z,66.70
2022-08-03T04:38:32.417Z,66.18
2022-08-03T04:40:59.940Z,65.94
2022-08-03T04:43:27.296Z,65.08
2022-08-03T04:45:54.606Z,65.38
2022-08-03T04:48:22.281Z,64.96
2022-08-03T04:50:49.724Z,64.41
2022-08-03T04:53:17.254Z,64.21
2022-08-03T04:55:44.602Z,63.85
2022-08-03T04:58:12.751Z,64.30
2022-08-03T05:00:40.085Z,63.82
2022-08-03T05:03:20.505Z,64.08
2022-08-03T05:06:01.595Z,64.22
2022-08-03T05:08:46.390Z,63.67
2022-08-03T05:11:16.697Z,63.45
2022-08-03T05:13:45.145Z,62.95
2022-08-03T05:16:14.075Z,62.59
2022-08-03T05:18:42.324Z,62.65
2022-08-03T05:21:10.296Z,62.72
2022-08-03T05:23:38.024Z,61.05
2022-08-03T05:26:05.579Z,61.42
2022-08-03T05:28:33.036Z,60.57
2022-08-03T05:31:00.367Z,60.50
2022-08-03T05:33:27.624Z,60.48
2022-08-03T05:35:57.443Z,60.89
2022-08-03T05:38:34.136Z,60.04
2022-08-03T05:41:22.724Z,60.54
2022-08-03T05:43:52.893Z,60.01
2022-08-03T05:46:21.213Z,59.13
2022-08-03T05:48:48.603Z,59.16
2022-08-03T05:51:16.098Z,59.06
2022-08-03T05:53:44.040Z,59.03
2022-08-03T05:56:14.295Z,58.72
2022-08-03T05:58:46.966Z,58.68
2022-08-03T06:01:15.627Z,58.69
2022-08-03T06:03:43.050Z,58.00
2022-08-03T06:06:11.793Z,58.12
2022-08-03T06:08:40.373Z,58.56
2022-08-03T06:11:08.056Z,58.13
2022-08-03T06:13:35.601Z,58.28
2022-08-03T06:16:03.043Z,57.62
2022-08-03T06:18:30.435Z,56.70
2022-08-03T06:20:58.099Z,56.08
2022-08-03T06:23:53.873Z,55.96
2022-08-03T06:26:26.288Z,55.70
2022-08-03T06:28:55.114Z,55.28
2022-08-03T06:31:25.941Z,54.70
2022-08-03T06:34:33.715Z,54.24
2022-08-03T06:36:48.770Z,54.24
2022-08-03T06:39:16.091Z,53.57
2022-08-03T06:41:44.685Z,53.50
2022-08-03T06:44:13.082Z,51.28
2022-08-03T06:46:40.822Z,44.55
2022-08-03T06:49:08.366Z,41.13
2022-08-03T06:52:03.935Z,38.12
2022-08-03T06:54:24.742Z,35.92
2022-08-03T06:56:52.232Z,34.75
2022-08-03T07:00:09.049Z,34.82
2022-08-03T07:02:07.629Z,33.97
2022-08-03T07:04:34.992Z,33.40
2022-08-03T07:07:02.560Z,33.02
2022-08-03T07:09:30.125Z,34.17
2022-08-03T07:11:57.712Z,32.68
2022-08-03T07:14:25.105Z,34.29
2022-08-03T07:16:52.446Z,34.30
2022-08-03T07:19:19.779Z,33.85
2022-08-03T07:21:47.790Z,32.50
2022-08-03T07:24:15.501Z,30.95
2022-08-03T07:26:42.905Z,32.28
2022-08-03T07:29:15.331Z,32.08
2022-08-03T07:31:42.915Z,31.59
2022-08-03T07:34:10.585Z,32.13
2022-08-03T07:36:37.952Z,30.64
2022-08-03T07:39:15.983Z,30.51
2022-08-03T07:41:45.977Z,29.19
2022-08-03T07:44:13.595Z,28.82
2022-08-03T07:46:41.028Z,29.15
2022-08-03T07:49:08.374Z,29.08
2022-08-03T07:51:35.815Z,28.70
2022-08-03T07:54:03.290Z,29.19
2022-08-03T07:56:30.984Z,30.62
2022-08-03T07:58:58.441Z,31.25
2022-08-03T08:01:25.915Z,30.59
2022-08-03T08:03:53.830Z,32.35
2022-08-03T08:06:21.679Z,30.37
2022-08-03T08:08:49.111Z,29.40
2022-08-03T08:11:16.541Z,29.38
2022-08-03T08:13:44.485Z,29.87
2022-08-03T08:16:12.206Z,29.44
2022-08-03T08:18:39.692Z,30.57
2022-08-03T08:21:07.144Z,29.77
2022-08-03T08:23:41.795Z,28.70
2022-08-03T08:26:11.454Z,29.20
2022-08-03T08:28:38.868Z,29.96
2022-08-03T08:31:06.573Z,31.68
2022-08-03T08:34:04.559Z,30.60
2022-08-03T08:36:22.843Z,29.61
2022-08-03T08:38:50.898Z,29.80
2022-08-03T08:41:18.196Z,30.04
2022-08-03T08:43:45.616Z,29.22
2022-08-03T08:46:23.942Z,29.78
2022-08-03T08:48:52.032Z,29.14
2022-08-03T08:51:20.531Z,28.57
2022-08-03T08:53:52.909Z,28.92
2022-08-03T08:56:20.588Z,30.90
2022-08-03T08:58:49.633Z,30.25
2022-08-03T09:01:20.815Z,31.44
2022-08-03T09:03:48.366Z,33.45
2022-08-03T09:06:15.955Z,35.90
2022-08-03T09:08:43.305Z,36.97
2022-08-03T09:11:12.021Z,37.33
2022-08-03T09:13:40.310Z,37.87
2022-08-03T09:16:18.547Z,38.54
2022-08-03T09:18:55.058Z,38.07
2022-08-03T09:21:34.497Z,37.65
2022-08-03T09:24:06.154Z,37.19
2022-08-03T09:26:35.357Z,36.75
2022-08-03T09:29:13.745Z,36.92
2022-08-03T09:31:45.942Z,36.81
2022-08-03T09:34:15.222Z,37.00
2022-08-03T09:36:44.853Z,37.98
2022-08-03T09:39:41.055Z,37.62
2022-08-03T09:42:19.271Z,37.37
2022-08-03T09:44:51.964Z,36.74
2022-08-03T09:47:29.072Z,36.56
2022-08-03T09:49:58.716Z,36.52
2022-08-03T09:52:37.985Z,36.65
2022-08-03T09:56:35.117Z,36.55
2022-08-03T09:58:10.508Z,36.60
2022-08-03T10:00:58.007Z,36.60
2022-08-03T10:03:26.760Z,36.42
2022-08-03T10:05:59.334Z,35.52
2022-08-03T10:08:27.301Z,34.86
2022-08-03T10:10:54.849Z,34.64
2022-08-03T10:13:22.858Z,34.86
2022-08-03T10:16:22.823Z,34.83
2022-08-03T10:18:37.994Z,34.54
2022-08-03T10:21:08.329Z,34.19
2022-08-03T10:23:35.796Z,34.14
2022-08-03T10:26:04.499Z,34.61
2022-08-03T10:28:35.933Z,33.97
2022-08-03T10:31:03.316Z,34.34
2022-08-03T10:33:51.786Z,32.93
2022-08-03T10:36:24.519Z,33.26
2022-08-03T10:38:56.815Z,32.67
2022-08-03T10:41:26.910Z,32.64
2022-08-03T10:43:59.078Z,32.42
2022-08-03T10:46:26.543Z,33.98
2022-08-03T10:48:54.035Z,34.96
2022-08-03T10:51:21.434Z,34.70
2022-08-03T10:53:54.260Z,34.42
2022-08-03T10:56:54.703Z,33.40
2022-08-03T10:59:47.262Z,33.51
2022-08-03T11:02:15.419Z,33.37
2022-08-03T11:04:44.857Z,33.65
2022-08-03T11:07:18.777Z,32.69
2022-08-03T11:09:50.829Z,33.08
2022-08-03T11:12:31.081Z,32.76
2022-08-03T11:15:04.835Z,32.56
2022-08-03T11:17:33.983Z,32.97
2022-08-03T11:20:14.372Z,33.11
2022-08-03T11:22:48.981Z,32.89
2022-08-03T11:25:34.832Z,32.28
2022-08-03T11:28:29.212Z,31.65
2022-08-03T11:31:32.717Z,31.53
2022-08-03T11:34:07.395Z,31.27
2022-08-03T11:37:12.269Z,31.58
2022-08-03T11:39:46.506Z,31.33
2022-08-03T11:42:23.185Z,31.75
2022-08-03T11:44:51.483Z,31.78
2022-08-03T11:47:20.188Z,31.67
2022-08-03T11:49:48.225Z,31.86
2022-08-03T11:52:16.541Z,31.41
2022-08-03T11:54:44.345Z,30.97
2022-08-03T11:57:11.765Z,31.03
2022-08-03T11:59:39.257Z,31.40
2022-08-03T12:02:10.699Z,32.06
2022-08-03T12:05:01.576Z,32.24
2022-08-03T12:08:04.122Z,31.44
2022-08-03T12:10:17.229Z,30.76
2022-08-03T12:12:46.709Z,30.96
2022-08-03T12:15:14.234Z,30.87
2022-08-03T12:17:41.878Z,30.88
2022-08-03T12:20:10.361Z,30.98
2022-08-03T12:22:39.075Z,31.16
2022-08-03T12:25:07.659Z,32.02
2022-08-03T12:27:35.047Z,31.71
2022-08-03T12:30:02.466Z,32.11
2022-08-03T12:32:30.069Z,31.10
2022-08-03T12:35:02.289Z,30.10
2022-08-03T12:37:31.019Z,29.61
2022-08-03T12:40:10.202Z,30.63
2022-08-03T12:42:38.981Z,29.89
2022-08-03T12:45:26.473Z,29.71
2022-08-03T12:47:58.839Z,29.50
2022-08-03T12:50:33.732Z,29.90
2022-08-03T12:53:02.669Z,30.23
2022-08-03T12:55:56.961Z,29.66
2022-08-03T12:58:33.971Z,30.50
2022-08-03T13:01:04.996Z,29.64
2022-08-03T13:03:42.756Z,29.47
2022-08-03T13:06:17.937Z,28.92
2022-08-03T13:08:46.162Z,28.35
2022-08-03T13:11:50.629Z,29.00
2022-08-03T13:14:19.565Z,29.67
2022-08-03T13:16:48.642Z,29.33
2022-08-03T13:19:16.196Z,28.67
2022-08-03T13:21:53.864Z,29.43
2022-08-03T13:24:32.476Z,29.51
2022-08-03T13:27:00.662Z,29.64
2022-08-03T13:29:48.034Z,29.36
2022-08-03T13:32:15.339Z,29.26
2022-08-03T13:34:42.932Z,29.20
2022-08-03T13:37:12.173Z,29.26
2022-08-03T13:39:58.175Z,28.62
2022-08-03T13:42:29.984Z,28.14
2022-08-03T13:44:57.528Z,28.09
2022-08-03T13:47:25.102Z,29.03
2022-08-03T13:49:54.873Z,29.03
2022-08-03T13:52:38.395Z,29.54
2022-08-03T13:55:07.017Z,29.60
2022-08-03T13:58:19.040Z,29.58
2022-08-03T14:00:27.640Z,29.42
2022-08-03T14:03:03.957Z,29.40
2022-08-03T14:05:35.815Z,29.37
2022-08-03T14:08:05.715Z,29.11
2022-08-03T14:10:34.619Z,29.12
2022-08-03T14:13:02.184Z,29.16
2022-08-03T14:15:29.496Z,29.69
2022-08-03T14:17:58.564Z,29.20
2022-08-03T14:20:38.762Z,28.85
2022-08-03T14:23:15.130Z,29.55
2022-08-03T14:25:43.470Z,28.61
2022-08-03T14:28:18.871Z,28.93
2022-08-03T14:30:46.300Z,28.51
2022-08-03T14:33:13.661Z,29.40
2022-08-03T14:35:41.091Z,28.68
2022-08-03T14:38:08.565Z,29.23
2022-08-03T14:40:35.842Z,29.00
2022-08-03T14:43:03.251Z,29.03
2022-08-03T14:45:30.574Z,29.26
2022-08-03T14:50:28.571Z,29.05
2022-08-03T14:50:51.421Z,29.05
2022-08-03T14:53:19.820Z,29.27
2022-08-03T14:55:49.546Z,29.18
2022-08-03T14:58:20.976Z,29.12
2022-08-03T15:00:48.926Z,29.54
2022-08-03T15:03:17.093Z,29.06
2022-08-03T15:05:45.123Z,28.77
2022-08-03T15:08:12.437Z,28.58
2022-08-03T15:10:43.854Z,29.02
2022-08-03T15:13:16.517Z,29.45
2022-08-03T15:15:44.016Z,29.71
2022-08-03T15:18:11.369Z,30.04
2022-08-03T15:20:45.012Z,29.58
2022-08-03T15:23:13.948Z,29.53
2022-08-03T15:26:03.631Z,29.77
2022-08-03T15:28:28.686Z,29.33
2022-08-03T15:30:56.192Z,30.13
2022-08-03T15:33:23.483Z,29.35
2022-08-03T15:35:50.976Z,29.02
2022-08-03T15:38:18.364Z,28.85
2022-08-03T15:40:45.813Z,29.68
2022-08-03T15:43:13.232Z,29.71
2022-08-03T15:45:41.934Z,30.06
2022-08-03T15:48:09.517Z,29.27
2022-08-03T15:50:36.803Z,28.24
2022-08-03T15:53:04.659Z,28.38
2022-08-03T15:55:32.055Z,28.19
2022-08-03T15:59:04.270Z,28.23
2022-08-03T16:00:46.881Z,28.22
2022-08-03T16:03:14.441Z,28.61
2022-08-03T16:05:41.752Z,27.82
2022-08-03T16:08:13.677Z,28.56
2022-08-03T16:10:41.360Z,28.73
2022-08-03T16:13:08.781Z,28.83
2022-08-03T16:15:37.471Z,28.52
2022-08-03T16:18:06.880Z,28.52
2022-08-03T16:20:35.396Z,27.83
2022-08-03T16:23:11.061Z,28.28
2022-08-03T16:25:40.679Z,27.54
2022-08-03T16:28:13.430Z,27.21
2022-08-03T16:30:42.885Z,27.02
2022-08-03T16:33:11.500Z,27.92
2022-08-03T16:35:45.594Z,27.18
2022-08-03T16:38:18.528Z,27.39
2022-08-03T16:40:47.700Z,26.89
2022-08-03T16:43:17.765Z,27.43
2022-08-03T16:45:47.361Z,27.20
2022-08-03T16:48:15.542Z,26.79
2022-08-03T16:50:43.245Z,27.15
2022-08-03T16:53:16.509Z,27.25
2022-08-03T16:55:53.522Z,26.89
2022-08-03T16:58:34.459Z,26.98
2022-08-03T17:01:23.955Z,27.52
2022-08-03T17:04:02.565Z,27.89
2022-08-03T17:06:35.968Z,27.85
2022-08-03T17:09:08.892Z,27.56
2022-08-03T17:11:47.512Z,27.77
2022-08-03T17:14:21.579Z,28.28
2022-08-03T17:16:53.674Z,27.87
2022-08-03T17:19:23.516Z,28.50
2022-08-03T17:22:19.164Z,28.82
2022-08-03T17:24:49.622Z,29.11
2022-08-03T17:28:48.764Z,29.64
2022-08-03T17:30:13.412Z,30.37
2022-08-03T17:32:52.667Z,29.86
2022-08-03T17:35:34.290Z,30.12
2022-08-03T17:38:05.877Z,30.27
2022-08-03T17:40:35.365Z,30.50
2022-08-03T17:44:14.246Z,31.08
2022-08-03T17:45:54.859Z,31.59
2022-08-03T17:48:25.041Z,31.61
2022-08-03T17:50:56.231Z,32.36
2022-08-03T17:53:31.938Z,32.78
2022-08-03T17:56:44.866Z,32.91
2022-08-03T17:59:15.278Z,33.10
2022-08-03T18:02:48.117Z,33.25
2022-08-03T18:05:15.979Z,34.14
2022-08-03T18:07:48.352Z,34.36
2022-08-03T18:10:16.643Z,34.28
2022-08-03T18:13:14.410Z,34.73
2022-08-03T18:15:47.723Z,34.68
2022-08-03T18:18:16.660Z,34.76
2022-08-03T18:20:57.070Z,35.20
2022-08-03T18:23:37.080Z,35.64
2022-08-03T18:26:11.931Z,35.66
2022-08-03T18:28:39.947Z,35.62
2022-08-03T18:31:11.598Z,35.87
2022-08-03T18:34:17.079Z,36.24
2022-08-03T18:36:30.521Z,36.62
2022-08-03T18:38:59.842Z,36.99
2022-08-03T18:41:33.260Z,36.79
2022-08-03T18:44:08.046Z,37.28
2022-08-03T18:47:16.303Z,37.69
2022-08-03T18:49:54.027Z,37.71
2022-08-03T18:52:45.967Z,37.93
2022-08-03T18:55:33.662Z,37.59
2022-08-03T18:58:09.030Z,37.40
2022-08-03T19:02:00.572Z,38.18
2022-08-03T19:04:24.238Z,38.49
2022-08-03T19:06:52.935Z,38.72
2022-08-03T19:09:35.836Z,38.78
2022-08-03T19:12:28.151Z,38.94
2022-08-03T19:15:12.680Z,38.98
2022-08-03T19:17:50.221Z,39.73
2022-08-03T19:20:22.159Z,39.79
2022-08-03T19:22:50.793Z,40.07
2022-08-03T19:25:18.406Z,40.24
2022-08-03T19:27:46.193Z,40.15
2022-08-03T19:30:35.819Z,40.81
2022-08-03T19:33:11.267Z,41.16
2022-08-03T19:35:51.883Z,41.21
2022-08-03T19:38:28.594Z,41.16
2022-08-03T19:40:59.630Z,41.29
2022-08-03T19:43:33.347Z,41.41
2022-08-03T19:46:16.913Z,41.71
2022-08-03T19:48:52.020Z,41.91
2022-08-03T19:51:26.483Z,41.40
2022-08-03T19:54:06.991Z,41.00
2022-08-03T19:56:36.605Z,41.36
2022-08-03T19:59:10.977Z,41.94
2022-08-03T20:01:56.742Z,42.25
2022-08-03T20:04:24.116Z,42.38
2022-08-03T20:06:52.493Z,42.19
2022-08-03T20:09:19.827Z,42.35
2022-08-03T20:11:47.828Z,42.95
2022-08-03T20:14:20.869Z,43.08
2022-08-03T20:16:54.109Z,42.88
2022-08-03T20:19:21.609Z,43.81
2022-08-03T20:21:50.080Z,44.11
2022-08-03T20:24:23.321Z,44.25
2022-08-03T20:26:53.534Z,43.97
2022-08-03T20:30:05.362Z,43.06
2022-08-03T20:32:29.292Z,43.04
2022-08-03T20:34:57.010Z,43.82
2022-08-03T20:37:26.137Z,43.71
2022-08-03T20:39:54.542Z,43.54
2022-08-03T20:42:22.597Z,43.80
2022-08-03T20:44:58.936Z,43.90
2022-08-03T20:47:36.634Z,44.06
2022-08-03T20:50:09.632Z,44.63
2022-08-03T20:52:49.254Z,44.96
2022-08-03T20:55:18.184Z,45.28
2022-08-03T20:57:48.339Z,45.32
2022-08-03T21:00:21.932Z,45.54
2022-08-03T21:02:49.676Z,45.65
2022-08-03T21:05:17.017Z,45.42
2022-08-03T21:08:06.067Z,45.75
2022-08-03T21:10:37.888Z,46.50
2022-08-03T21:13:16.981Z,47.15
2022-08-03T21:16:11.593Z,47.45
2022-08-03T21:18:37.009Z,47.84
2022-08-03T21:21:05.803Z,47.30
2022-08-03T21:23:45.439Z,47.55
2022-08-03T21:26:16.759Z,48.01
2022-08-03T21:28:44.054Z,48.17
2022-08-03T21:31:11.429Z,48.07
2022-08-03T21:33:38.875Z,47.78
2022-08-03T21:36:08.195Z,48.14
2022-08-03T21:38:36.160Z,48.40
2022-08-03T21:41:03.587Z,47.61
2022-08-03T21:43:30.899Z,48.00
2022-08-03T21:45:59.185Z,47.70
2022-08-03T21:48:27.010Z,47.85
2022-08-03T21:50:54.751Z,47.93
2022-08-03T21:53:22.344Z,48.67
2022-08-03T21:56:07.291Z,48.97
2022-08-03T21:58:43.224Z,49.00
2022-08-03T22:01:11.023Z,47.70
2022-08-03T22:03:51.096Z,47.79
2022-08-03T22:06:21.408Z,48.27
2022-08-03T22:08:50.625Z,48.10
2022-08-03T22:11:18.025Z,47.70
2022-08-03T22:13:45.680Z,47.64
2022-08-03T22:16:13.906Z,48.24
2022-08-03T22:18:42.845Z,48.44
2022-08-03T22:21:11.932Z,49.10
2022-08-03T22:23:44.352Z,49.07
2022-08-03T22:26:14.805Z,48.43
2022-08-03T22:28:42.426Z,48.43
2022-08-03T22:31:30.397Z,48.35
2022-08-03T22:33:57.201Z,48.08
2022-08-03T22:36:24.455Z,48.12
2022-08-03T22:38:52.504Z,48.48
2022-08-03T22:41:20.243Z,48.42
2022-08-03T22:43:47.834Z,48.32
2022-08-03T22:46:18.659Z,48.47
2022-08-03T22:48:46.258Z,48.60
2022-08-03T22:51:14.511Z,49.18
2022-08-03T22:53:41.929Z,49.33
2022-08-03T22:56:09.345Z,49.05
2022-08-03T22:58:36.807Z,48.76
2022-08-03T23:01:08.452Z,49.42
2022-08-03T23:04:00.021Z,49.80
2022-08-03T23:06:32.573Z,50.75
2022-08-03T23:09:00.889Z,51.17
2022-08-03T23:11:28.151Z,51.48
2022-08-03T23:13:55.578Z,51.28
2022-08-03T23:16:28.987Z,51.08
2022-08-03T23:18:59.053Z,51.03
2022-08-03T23:21:52.852Z,51.47
2022-08-03T23:24:19.194Z,50.80
2022-08-03T23:26:57.901Z,51.78
2022-08-03T23:29:25.299Z,52.66
2022-08-03T23:31:52.881Z,52.74
2022-08-03T23:34:39.019Z,52.26
2022-08-03T23:37:06.442Z,52.65
2022-08-03T23:39:34.885Z,52.58
2022-08-03T23:42:03.159Z,51.20
2022-08-03T23:44:30.993Z,50.63
2022-08-03T23:46:58.324Z,50.38
2022-08-03T23:49:25.701Z,50.25
2022-08-03T23:52:15.309Z,51.52
2022-08-03T23:54:57.985Z,51.18
2022-08-03T23:57:28.181Z,50.98
2022-08-03T23:59:55.501Z,50.91
